sensor_id;sensor_type;location;lat;lon;timestamp;temperature;humidity
12872;DHT22;6504;53.766;9.626;2023-07-24T00:00:40;17.60;99.90
12872;DHT22;6504;53.766;9.626;2023-07-24T00:03:08;17.60;99.90
12872;DHT22;6504;53.766;9.626;2023-07-24T00:05:36;17.60;99.90
12872;DHT22;6504;53.766;9.626;2023-07-24T00:08:06;17.60;99.90
12872;DHT22;6504;53.766;9.626;2023-07-24T00:10:34;17.60;99.90
12872;DHT22;6504;53.766;9.626;2023-07-24T00:13:02;17.60;99.90
12872;DHT22;6504;53.766;9.626;2023-07-24T00:15:30;17.60;99.90
12872;DHT22;6504;53.766;9.626;2023-07-24T00:17:58;17.60;99.90
12872;DHT22;6504;53.766;9.626;2023-07-24T00:20:26;17.60;99.90
12872;DHT22;6504;53.766;9.626;2023-07-24T00:22:54;17.60;99.90
12872;DHT22;6504;53.766;9.626;2023-07-24T00:25:24;17.60;99.90
12872;DHT22;6504;53.766;9.626;2023-07-24T00:27:52;17.60;99.90
12872;DHT22;6504;53.766;9.626;2023-07-24T00:30:20;17.60;99.90
12872;DHT22;6504;53.766;9.626;2023-07-24T00:32:48;17.60;99.90
12872;DHT22;6504;53.766;9.626;2023-07-24T00:35:16;17.60;99.90
12872;DHT22;6504;53.766;9.626;2023-07-24T00:37:44;17.60;99.90
12872;DHT22;6504;53.766;9.626;2023-07-24T00:40:12;17.60;99.90
12872;DHT22;6504;53.766;9.626;2023-07-24T00:42:46;17.60;99.90
12872;DHT22;6504;53.766;9.626;2023-07-24T00:45:15;17.60;99.90
12872;DHT22;6504;53.766;9.626;2023-07-24T00:47:43;17.60;99.90
12872;DHT22;6504;53.766;9.626;2023-07-24T00:50:12;17.60;99.90
12872;DHT22;6504;53.766;9.626;2023-07-24T00:52:41;17.60;99.90
12872;DHT22;6504;53.766;9.626;2023-07-24T00:55:11;17.60;99.90
12872;DHT22;6504;53.766;9.626;2023-07-24T00:57:41;17.60;99.90
12872;DHT22;6504;53.766;9.626;2023-07-24T01:00:11;17.60;99.90
12872;DHT22;6504;53.766;9.626;2023-07-24T01:02:39;17.60;99.90
12872;DHT22;6504;53.766;9.626;2023-07-24T01:05:08;17.60;99.90
12872;DHT22;6504;53.766;9.626;2023-07-24T01:07:37;17.60;99.90
12872;DHT22;6504;53.766;9.626;2023-07-24T01:10:05;17.50;99.90
12872;DHT22;6504;53.766;9.626;2023-07-24T01:12:38;17.60;99.90
12872;DHT22;6504;53.766;9.626;2023-07-24T01:15:12;17.50;99.90
12872;DHT22;6504;53.766;9.626;2023-07-24T01:17:46;17.50;99.90
12872;DHT22;6504;53.766;9.626;2023-07-24T01:20:17;17.50;99.90
12872;DHT22;6504;53.766;9.626;2023-07-24T01:22:57;17.50;99.90
12872;DHT22;6504;53.766;9.626;2023-07-24T01:25:32;17.60;99.90
12872;DHT22;6504;53.766;9.626;2023-07-24T01:28:08;17.50;99.90
12872;DHT22;6504;53.766;9.626;2023-07-24T01:30:36;17.60;99.90
12872;DHT22;6504;53.766;9.626;2023-07-24T01:33:04;17.50;99.90
12872;DHT22;6504;53.766;9.626;2023-07-24T01:35:33;17.50;99.90
12872;DHT22;6504;53.766;9.626;2023-07-24T01:38:02;17.50;99.90
12872;DHT22;6504;53.766;9.626;2023-07-24T01:40:31;17.50;99.90
12872;DHT22;6504;53.766;9.626;2023-07-24T01:42:59;17.50;99.90
12872;DHT22;6504;53.766;9.626;2023-07-24T01:45:29;17.50;99.90
12872;DHT22;6504;53.766;9.626;2023-07-24T01:47:57;17.50;99.90
12872;DHT22;6504;53.766;9.626;2023-07-24T01:50:25;17.50;99.90
12872;DHT22;6504;53.766;9.626;2023-07-24T01:52:53;17.50;99.90
12872;DHT22;6504;53.766;9.626;2023-07-24T01:55:21;17.50;99.90
12872;DHT22;6504;53.766;9.626;2023-07-24T01:57:49;17.50;99.90
12872;DHT22;6504;53.766;9.626;2023-07-24T02:00:18;17.50;99.90
12872;DHT22;6504;53.766;9.626;2023-07-24T02:02:47;17.50;99.90
12872;DHT22;6504;53.766;9.626;2023-07-24T02:05:15;17.50;99.90
12872;DHT22;6504;53.766;9.626;2023-07-24T02:07:43;17.50;99.90
12872;DHT22;6504;53.766;9.626;2023-07-24T02:10:11;17.50;99.90
12872;DHT22;6504;53.766;9.626;2023-07-24T02:12:39;17.50;99.90
12872;DHT22;6504;53.766;9.626;2023-07-24T02:15:08;17.50;99.90
12872;DHT22;6504;53.766;9.626;2023-07-24T02:17:36;17.50;99.90
12872;DHT22;6504;53.766;9.626;2023-07-24T02:20:08;17.50;99.90
12872;DHT22;6504;53.766;9.626;2023-07-24T02:22:36;17.50;99.90
12872;DHT22;6504;53.766;9.626;2023-07-24T02:25:05;17.50;99.90
12872;DHT22;6504;53.766;9.626;2023-07-24T02:27:33;17.50;99.90
12872;DHT22;6504;53.766;9.626;2023-07-24T02:30:02;17.50;99.90
12872;DHT22;6504;53.766;9.626;2023-07-24T02:32:30;17.50;99.90
12872;DHT22;6504;53.766;9.626;2023-07-24T02:34:59;17.40;99.90
12872;DHT22;6504;53.766;9.626;2023-07-24T02:37:28;17.40;99.90
12872;DHT22;6504;53.766;9.626;2023-07-24T02:39:56;17.40;99.90
12872;DHT22;6504;53.766;9.626;2023-07-24T02:42:25;17.40;99.90
12872;DHT22;6504;53.766;9.626;2023-07-24T02:44:54;17.40;99.90
12872;DHT22;6504;53.766;9.626;2023-07-24T02:47:22;17.40;99.90
12872;DHT22;6504;53.766;9.626;2023-07-24T02:49:50;17.40;99.90
12872;DHT22;6504;53.766;9.626;2023-07-24T02:52:18;17.40;99.90
12872;DHT22;6504;53.766;9.626;2023-07-24T02:54:47;17.40;99.90
12872;DHT22;6504;53.766;9.626;2023-07-24T02:57:15;17.40;99.90
12872;DHT22;6504;53.766;9.626;2023-07-24T02:59:44;17.30;99.90
12872;DHT22;6504;53.766;9.626;2023-07-24T03:02:12;17.30;99.90
12872;DHT22;6504;53.766;9.626;2023-07-24T03:04:40;17.30;99.90
12872;DHT22;6504;53.766;9.626;2023-07-24T03:07:08;17.30;99.90
12872;DHT22;6504;53.766;9.626;2023-07-24T03:09:36;17.30;99.90
12872;DHT22;6504;53.766;9.626;2023-07-24T03:12:06;17.30;99.90
12872;DHT22;6504;53.766;9.626;2023-07-24T03:14:34;17.30;99.90
12872;DHT22;6504;53.766;9.626;2023-07-24T03:17:03;17.30;99.90
12872;DHT22;6504;53.766;9.626;2023-07-24T03:19:31;17.30;99.90
12872;DHT22;6504;53.766;9.626;2023-07-24T03:21:59;17.30;99.90
12872;DHT22;6504;53.766;9.626;2023-07-24T03:24:27;17.30;99.90
12872;DHT22;6504;53.766;9.626;2023-07-24T03:26:55;17.30;99.90
12872;DHT22;6504;53.766;9.626;2023-07-24T03:29:25;17.30;99.90
12872;DHT22;6504;53.766;9.626;2023-07-24T03:31:53;17.30;99.90
12872;DHT22;6504;53.766;9.626;2023-07-24T03:34:21;17.30;99.90
12872;DHT22;6504;53.766;9.626;2023-07-24T03:36:49;17.40;99.90
12872;DHT22;6504;53.766;9.626;2023-07-24T03:39:17;17.40;99.90
12872;DHT22;6504;53.766;9.626;2023-07-24T03:41:45;17.40;99.90
12872;DHT22;6504;53.766;9.626;2023-07-24T03:44:13;17.40;99.90
12872;DHT22;6504;53.766;9.626;2023-07-24T03:46:43;17.40;99.90
12872;DHT22;6504;53.766;9.626;2023-07-24T03:49:11;17.40;99.90
12872;DHT22;6504;53.766;9.626;2023-07-24T03:51:39;17.40;99.90
12872;DHT22;6504;53.766;9.626;2023-07-24T03:54:07;17.40;99.90
12872;DHT22;6504;53.766;9.626;2023-07-24T03:56:35;17.50;99.90
12872;DHT22;6504;53.766;9.626;2023-07-24T03:59:03;17.50;99.90
12872;DHT22;6504;53.766;9.626;2023-07-24T04:01:31;17.50;99.90
12872;DHT22;6504;53.766;9.626;2023-07-24T04:04:00;17.50;99.90
12872;DHT22;6504;53.766;9.626;2023-07-24T04:06:29;17.50;99.90
12872;DHT22;6504;53.766;9.626;2023-07-24T04:08:57;17.50;99.90
12872;DHT22;6504;53.766;9.626;2023-07-24T04:11:25;17.60;99.90
12872;DHT22;6504;53.766;9.626;2023-07-24T04:13:53;17.60;99.90
12872;DHT22;6504;53.766;9.626;2023-07-24T04:16:22;17.60;99.90
12872;DHT22;6504;53.766;9.626;2023-07-24T04:18:52;17.60;99.90
12872;DHT22;6504;53.766;9.626;2023-07-24T04:21:22;17.60;99.90
12872;DHT22;6504;53.766;9.626;2023-07-24T04:23:50;17.50;99.90
12872;DHT22;6504;53.766;9.626;2023-07-24T04:26:18;17.60;99.90
12872;DHT22;6504;53.766;9.626;2023-07-24T04:28:46;17.60;99.90
12872;DHT22;6504;53.766;9.626;2023-07-24T04:31:14;17.60;99.90
12872;DHT22;6504;53.766;9.626;2023-07-24T04:33:42;17.60;99.90
12872;DHT22;6504;53.766;9.626;2023-07-24T04:36:10;17.60;99.90
12872;DHT22;6504;53.766;9.626;2023-07-24T04:38:43;17.60;99.90
12872;DHT22;6504;53.766;9.626;2023-07-24T04:41:13;17.70;99.90
12872;DHT22;6504;53.766;9.626;2023-07-24T04:43:41;17.70;99.90
12872;DHT22;6504;53.766;9.626;2023-07-24T04:46:09;17.70;99.90
12872;DHT22;6504;53.766;9.626;2023-07-24T04:48:37;17.70;99.90
12872;DHT22;6504;53.766;9.626;2023-07-24T04:51:05;17.70;99.90
12872;DHT22;6504;53.766;9.626;2023-07-24T04:53:33;17.70;99.90
12872;DHT22;6504;53.766;9.626;2023-07-24T04:56:03;17.70;99.90
12872;DHT22;6504;53.766;9.626;2023-07-24T04:58:31;17.70;99.90
12872;DHT22;6504;53.766;9.626;2023-07-24T05:01:02;17.70;99.90
12872;DHT22;6504;53.766;9.626;2023-07-24T05:03:31;17.70;99.90
12872;DHT22;6504;53.766;9.626;2023-07-24T05:05:59;17.70;99.90
12872;DHT22;6504;53.766;9.626;2023-07-24T05:08:27;17.70;99.90
12872;DHT22;6504;53.766;9.626;2023-07-24T05:10:55;17.70;99.90
12872;DHT22;6504;53.766;9.626;2023-07-24T05:13:25;17.70;99.90
12872;DHT22;6504;53.766;9.626;2023-07-24T05:15:53;17.70;99.90
12872;DHT22;6504;53.766;9.626;2023-07-24T05:18:21;17.70;99.90
12872;DHT22;6504;53.766;9.626;2023-07-24T05:20:49;17.70;99.90
12872;DHT22;6504;53.766;9.626;2023-07-24T05:23:19;17.70;99.90
12872;DHT22;6504;53.766;9.626;2023-07-24T05:25:47;17.70;99.90
12872;DHT22;6504;53.766;9.626;2023-07-24T05:28:15;17.70;99.90
12872;DHT22;6504;53.766;9.626;2023-07-24T05:30:44;17.80;99.90
12872;DHT22;6504;53.766;9.626;2023-07-24T05:33:12;17.80;99.90
12872;DHT22;6504;53.766;9.626;2023-07-24T05:35:40;17.80;99.90
12872;DHT22;6504;53.766;9.626;2023-07-24T05:38:10;17.90;99.90
12872;DHT22;6504;53.766;9.626;2023-07-24T05:40:38;17.90;99.90
12872;DHT22;6504;53.766;9.626;2023-07-24T05:43:06;18.00;99.90
12872;DHT22;6504;53.766;9.626;2023-07-24T05:45:34;18.00;99.90
12872;DHT22;6504;53.766;9.626;2023-07-24T05:48:04;18.00;99.90
12872;DHT22;6504;53.766;9.626;2023-07-24T05:50:32;18.00;99.90
12872;DHT22;6504;53.766;9.626;2023-07-24T05:53:00;18.00;99.90
12872;DHT22;6504;53.766;9.626;2023-07-24T05:55:28;18.10;99.90
12872;DHT22;6504;53.766;9.626;2023-07-24T05:57:56;18.10;99.90
12872;DHT22;6504;53.766;9.626;2023-07-24T06:00:24;18.10;99.90
12872;DHT22;6504;53.766;9.626;2023-07-24T06:02:53;18.10;99.90
12872;DHT22;6504;53.766;9.626;2023-07-24T06:05:24;18.10;99.90
12872;DHT22;6504;53.766;9.626;2023-07-24T06:07:52;18.10;99.90
12872;DHT22;6504;53.766;9.626;2023-07-24T06:10:20;18.20;99.90
12872;DHT22;6504;53.766;9.626;2023-07-24T06:12:48;18.20;99.90
12872;DHT22;6504;53.766;9.626;2023-07-24T06:15:17;18.20;99.90
12872;DHT22;6504;53.766;9.626;2023-07-24T06:17:45;18.10;99.90
12872;DHT22;6504;53.766;9.626;2023-07-24T06:20:13;18.20;99.90
12872;DHT22;6504;53.766;9.626;2023-07-24T06:22:43;18.20;99.90
12872;DHT22;6504;53.766;9.626;2023-07-24T06:25:11;18.20;99.90
12872;DHT22;6504;53.766;9.626;2023-07-24T06:27:39;18.20;99.90
12872;DHT22;6504;53.766;9.626;2023-07-24T06:30:07;18.20;99.90
12872;DHT22;6504;53.766;9.626;2023-07-24T06:32:42;18.20;99.90
12872;DHT22;6504;53.766;9.626;2023-07-24T06:35:10;18.30;99.90
12872;DHT22;6504;53.766;9.626;2023-07-24T06:37:38;18.30;99.90
12872;DHT22;6504;53.766;9.626;2023-07-24T06:40:08;18.30;99.90
12872;DHT22;6504;53.766;9.626;2023-07-24T06:42:37;18.40;99.90
12872;DHT22;6504;53.766;9.626;2023-07-24T06:45:06;18.40;99.90
12872;DHT22;6504;53.766;9.626;2023-07-24T06:47:35;18.40;99.90
12872;DHT22;6504;53.766;9.626;2023-07-24T06:50:03;18.50;99.90
12872;DHT22;6504;53.766;9.626;2023-07-24T06:52:32;18.50;99.90
12872;DHT22;6504;53.766;9.626;2023-07-24T06:55:00;18.60;99.90
12872;DHT22;6504;53.766;9.626;2023-07-24T06:57:30;18.60;99.90
12872;DHT22;6504;53.766;9.626;2023-07-24T06:59:58;18.60;99.90
12872;DHT22;6504;53.766;9.626;2023-07-24T07:02:26;18.70;99.90
12872;DHT22;6504;53.766;9.626;2023-07-24T07:04:55;18.70;99.90
12872;DHT22;6504;53.766;9.626;2023-07-24T07:07:23;18.70;99.90
12872;DHT22;6504;53.766;9.626;2023-07-24T07:09:51;18.80;99.90
12872;DHT22;6504;53.766;9.626;2023-07-24T07:12:19;18.80;99.90
12872;DHT22;6504;53.766;9.626;2023-07-24T07:14:49;18.80;99.90
12872;DHT22;6504;53.766;9.626;2023-07-24T07:17:17;18.80;99.90
12872;DHT22;6504;53.766;9.626;2023-07-24T07:19:45;18.80;99.90
12872;DHT22;6504;53.766;9.626;2023-07-24T07:22:14;18.90;99.90
12872;DHT22;6504;53.766;9.626;2023-07-24T07:24:42;18.90;99.90
12872;DHT22;6504;53.766;9.626;2023-07-24T07:27:13;18.90;99.90
12872;DHT22;6504;53.766;9.626;2023-07-24T07:29:43;18.90;99.90
12872;DHT22;6504;53.766;9.626;2023-07-24T07:32:13;18.90;99.90
12872;DHT22;6504;53.766;9.626;2023-07-24T07:34:41;18.90;99.90
12872;DHT22;6504;53.766;9.626;2023-07-24T07:37:09;19.00;99.90
12872;DHT22;6504;53.766;9.626;2023-07-24T07:39:37;19.00;99.90
12872;DHT22;6504;53.766;9.626;2023-07-24T07:42:05;19.00;99.90
12872;DHT22;6504;53.766;9.626;2023-07-24T07:44:44;19.00;99.90
12872;DHT22;6504;53.766;9.626;2023-07-24T07:47:14;19.00;99.90
12872;DHT22;6504;53.766;9.626;2023-07-24T07:49:42;19.00;99.90
12872;DHT22;6504;53.766;9.626;2023-07-24T07:52:10;19.00;99.90
12872;DHT22;6504;53.766;9.626;2023-07-24T07:54:39;19.10;99.90
12872;DHT22;6504;53.766;9.626;2023-07-24T07:57:07;19.10;99.90
12872;DHT22;6504;53.766;9.626;2023-07-24T07:59:35;19.10;99.90
12872;DHT22;6504;53.766;9.626;2023-07-24T08:02:04;19.10;99.90
12872;DHT22;6504;53.766;9.626;2023-07-24T08:04:33;19.10;99.90
12872;DHT22;6504;53.766;9.626;2023-07-24T08:07:01;19.10;99.90
12872;DHT22;6504;53.766;9.626;2023-07-24T08:09:29;19.20;99.90
12872;DHT22;6504;53.766;9.626;2023-07-24T08:12:00;19.10;99.90
12872;DHT22;6504;53.766;9.626;2023-07-24T08:14:28;19.10;99.90
12872;DHT22;6504;53.766;9.626;2023-07-24T08:16:56;19.10;99.90
12872;DHT22;6504;53.766;9.626;2023-07-24T08:19:27;19.20;99.90
12872;DHT22;6504;53.766;9.626;2023-07-24T08:21:57;19.10;99.90
12872;DHT22;6504;53.766;9.626;2023-07-24T08:24:25;19.10;99.90
12872;DHT22;6504;53.766;9.626;2023-07-24T08:26:53;19.10;99.90
12872;DHT22;6504;53.766;9.626;2023-07-24T08:29:22;19.00;99.90
12872;DHT22;6504;53.766;9.626;2023-07-24T08:31:50;19.00;99.90
12872;DHT22;6504;53.766;9.626;2023-07-24T08:34:18;19.00;99.90
12872;DHT22;6504;53.766;9.626;2023-07-24T08:36:46;19.00;99.90
12872;DHT22;6504;53.766;9.626;2023-07-24T08:39:15;19.00;99.90
12872;DHT22;6504;53.766;9.626;2023-07-24T08:41:43;19.00;99.90
12872;DHT22;6504;53.766;9.626;2023-07-24T08:44:12;19.00;99.90
12872;DHT22;6504;53.766;9.626;2023-07-24T08:46:40;19.00;99.90
12872;DHT22;6504;53.766;9.626;2023-07-24T08:49:13;19.00;99.90
12872;DHT22;6504;53.766;9.626;2023-07-24T08:51:41;19.00;99.90
12872;DHT22;6504;53.766;9.626;2023-07-24T08:54:12;19.00;99.90
12872;DHT22;6504;53.766;9.626;2023-07-24T08:56:42;19.00;99.90
12872;DHT22;6504;53.766;9.626;2023-07-24T08:59:14;19.10;99.90
12872;DHT22;6504;53.766;9.626;2023-07-24T09:01:43;19.10;99.90
12872;DHT22;6504;53.766;9.626;2023-07-24T09:04:11;19.20;99.90
12872;DHT22;6504;53.766;9.626;2023-07-24T09:06:39;19.30;99.90
12872;DHT22;6504;53.766;9.626;2023-07-24T09:09:12;19.40;99.90
12872;DHT22;6504;53.766;9.626;2023-07-24T09:11:49;19.40;99.90
12872;DHT22;6504;53.766;9.626;2023-07-24T09:14:22;19.50;99.90
12872;DHT22;6504;53.766;9.626;2023-07-24T09:16:50;19.60;99.90
12872;DHT22;6504;53.766;9.626;2023-07-24T09:19:29;19.60;99.90
12872;DHT22;6504;53.766;9.626;2023-07-24T09:22:07;19.70;99.90
12872;DHT22;6504;53.766;9.626;2023-07-24T09:24:36;19.70;99.90
12872;DHT22;6504;53.766;9.626;2023-07-24T09:27:06;19.80;99.90
12872;DHT22;6504;53.766;9.626;2023-07-24T09:29:36;19.80;99.90
12872;DHT22;6504;53.766;9.626;2023-07-24T09:32:05;19.80;99.90
12872;DHT22;6504;53.766;9.626;2023-07-24T09:34:33;19.80;99.90
12872;DHT22;6504;53.766;9.626;2023-07-24T09:37:01;19.90;99.90
12872;DHT22;6504;53.766;9.626;2023-07-24T09:39:29;19.90;99.90
12872;DHT22;6504;53.766;9.626;2023-07-24T09:42:03;19.90;99.90
12872;DHT22;6504;53.766;9.626;2023-07-24T09:44:32;19.90;99.90
12872;DHT22;6504;53.766;9.626;2023-07-24T09:47:01;20.00;99.90
12872;DHT22;6504;53.766;9.626;2023-07-24T09:49:50;20.10;99.90
12872;DHT22;6504;53.766;9.626;2023-07-24T09:52:20;20.10;99.90
12872;DHT22;6504;53.766;9.626;2023-07-24T09:54:55;20.20;99.90
12872;DHT22;6504;53.766;9.626;2023-07-24T09:57:26;20.30;99.90
12872;DHT22;6504;53.766;9.626;2023-07-24T09:59:58;20.30;99.90
12872;DHT22;6504;53.766;9.626;2023-07-24T10:02:26;20.40;99.90
12872;DHT22;6504;53.766;9.626;2023-07-24T10:04:56;20.40;99.90
12872;DHT22;6504;53.766;9.626;2023-07-24T10:07:24;20.50;99.90
12872;DHT22;6504;53.766;9.626;2023-07-24T10:09:53;20.60;99.90
12872;DHT22;6504;53.766;9.626;2023-07-24T10:12:22;20.60;99.90
12872;DHT22;6504;53.766;9.626;2023-07-24T10:14:54;20.70;99.90
12872;DHT22;6504;53.766;9.626;2023-07-24T10:17:37;20.80;99.90
12872;DHT22;6504;53.766;9.626;2023-07-24T10:20:07;20.90;99.90
12872;DHT22;6504;53.766;9.626;2023-07-24T10:22:36;21.00;99.90
12872;DHT22;6504;53.766;9.626;2023-07-24T10:25:08;21.10;99.90
12872;DHT22;6504;53.766;9.626;2023-07-24T10:27:39;21.10;99.90
12872;DHT22;6504;53.766;9.626;2023-07-24T10:30:10;21.20;99.90
12872;DHT22;6504;53.766;9.626;2023-07-24T10:33:05;21.30;99.90
12872;DHT22;6504;53.766;9.626;2023-07-24T10:35:41;21.40;99.90
12872;DHT22;6504;53.766;9.626;2023-07-24T10:38:10;21.40;99.90
12872;DHT22;6504;53.766;9.626;2023-07-24T10:40:39;21.50;99.90
12872;DHT22;6504;53.766;9.626;2023-07-24T10:43:10;21.50;99.90
12872;DHT22;6504;53.766;9.626;2023-07-24T10:45:42;21.50;99.90
12872;DHT22;6504;53.766;9.626;2023-07-24T10:48:13;21.50;99.90
12872;DHT22;6504;53.766;9.626;2023-07-24T10:50:43;21.50;99.90
12872;DHT22;6504;53.766;9.626;2023-07-24T10:53:14;21.50;99.90
12872;DHT22;6504;53.766;9.626;2023-07-24T10:55:43;21.60;99.90
12872;DHT22;6504;53.766;9.626;2023-07-24T10:58:11;21.60;99.90
12872;DHT22;6504;53.766;9.626;2023-07-24T11:00:40;21.60;99.90
12872;DHT22;6504;53.766;9.626;2023-07-24T11:03:09;21.50;99.90
12872;DHT22;6504;53.766;9.626;2023-07-24T11:05:40;21.50;99.90
12872;DHT22;6504;53.766;9.626;2023-07-24T11:08:10;21.40;99.90
12872;DHT22;6504;53.766;9.626;2023-07-24T11:10:45;21.40;99.90
12872;DHT22;6504;53.766;9.626;2023-07-24T11:13:14;21.50;99.90
12872;DHT22;6504;53.766;9.626;2023-07-24T11:15:43;21.60;99.90
12872;DHT22;6504;53.766;9.626;2023-07-24T11:18:11;21.70;99.90
12872;DHT22;6504;53.766;9.626;2023-07-24T11:20:46;21.80;99.90
12872;DHT22;6504;53.766;9.626;2023-07-24T11:23:14;22.00;99.90
12872;DHT22;6504;53.766;9.626;2023-07-24T11:25:43;22.10;99.90
12872;DHT22;6504;53.766;9.626;2023-07-24T11:28:12;22.30;99.90
12872;DHT22;6504;53.766;9.626;2023-07-24T11:30:41;22.50;99.90
12872;DHT22;6504;53.766;9.626;2023-07-24T11:33:12;22.70;99.90
12872;DHT22;6504;53.766;9.626;2023-07-24T11:35:48;22.80;99.90
12872;DHT22;6504;53.766;9.626;2023-07-24T11:38:16;23.00;99.90
12872;DHT22;6504;53.766;9.626;2023-07-24T11:40:44;23.20;99.90
12872;DHT22;6504;53.766;9.626;2023-07-24T11:43:16;23.30;99.90
12872;DHT22;6504;53.766;9.626;2023-07-24T11:45:46;23.40;99.90
12872;DHT22;6504;53.766;9.626;2023-07-24T11:48:15;23.50;99.90
12872;DHT22;6504;53.766;9.626;2023-07-24T11:50:44;23.60;99.90
12872;DHT22;6504;53.766;9.626;2023-07-24T11:53:21;23.70;99.90
12872;DHT22;6504;53.766;9.626;2023-07-24T11:55:50;23.70;99.90
12872;DHT22;6504;53.766;9.626;2023-07-24T11:58:19;23.90;99.90
12872;DHT22;6504;53.766;9.626;2023-07-24T12:00:48;24.00;99.90
12872;DHT22;6504;53.766;9.626;2023-07-24T12:03:20;24.20;99.90
12872;DHT22;6504;53.766;9.626;2023-07-24T12:05:48;24.20;99.90
12872;DHT22;6504;53.766;9.626;2023-07-24T12:08:19;24.30;99.90
12872;DHT22;6504;53.766;9.626;2023-07-24T12:10:51;24.30;99.90
12872;DHT22;6504;53.766;9.626;2023-07-24T12:13:19;24.50;99.90
12872;DHT22;6504;53.766;9.626;2023-07-24T12:15:48;24.50;99.90
12872;DHT22;6504;53.766;9.626;2023-07-24T12:18:16;24.50;99.90
12872;DHT22;6504;53.766;9.626;2023-07-24T12:20:44;24.60;99.90
12872;DHT22;6504;53.766;9.626;2023-07-24T12:23:12;24.60;99.90
12872;DHT22;6504;53.766;9.626;2023-07-24T12:25:40;24.60;99.90
12872;DHT22;6504;53.766;9.626;2023-07-24T12:28:10;24.60;99.90
12872;DHT22;6504;53.766;9.626;2023-07-24T12:30:38;24.70;99.90
12872;DHT22;6504;53.766;9.626;2023-07-24T12:33:06;24.70;99.90
12872;DHT22;6504;53.766;9.626;2023-07-24T12:35:34;24.70;99.90
12872;DHT22;6504;53.766;9.626;2023-07-24T12:38:02;24.80;99.90
12872;DHT22;6504;53.766;9.626;2023-07-24T12:40:30;24.80;99.90
12872;DHT22;6504;53.766;9.626;2023-07-24T12:42:58;24.90;99.90
12872;DHT22;6504;53.766;9.626;2023-07-24T12:45:28;24.80;99.90
12872;DHT22;6504;53.766;9.626;2023-07-24T12:47:56;24.80;99.90
12872;DHT22;6504;53.766;9.626;2023-07-24T12:50:24;24.90;99.90
12872;DHT22;6504;53.766;9.626;2023-07-24T12:52:52;24.90;99.90
12872;DHT22;6504;53.766;9.626;2023-07-24T12:55:21;25.00;99.90
12872;DHT22;6504;53.766;9.626;2023-07-24T12:57:49;25.10;99.90
12872;DHT22;6504;53.766;9.626;2023-07-24T13:00:17;25.20;99.90
12872;DHT22;6504;53.766;9.626;2023-07-24T13:02:46;25.30;99.90
12872;DHT22;6504;53.766;9.626;2023-07-24T13:05:15;25.40;99.90
12872;DHT22;6504;53.766;9.626;2023-07-24T13:07:43;25.50;99.90
12872;DHT22;6504;53.766;9.626;2023-07-24T13:10:13;25.50;99.90
12872;DHT22;6504;53.766;9.626;2023-07-24T13:12:41;25.50;99.90
12872;DHT22;6504;53.766;9.626;2023-07-24T13:15:09;25.60;99.90
12872;DHT22;6504;53.766;9.626;2023-07-24T13:17:37;25.70;99.90
12872;DHT22;6504;53.766;9.626;2023-07-24T13:20:09;25.80;99.90
12872;DHT22;6504;53.766;9.626;2023-07-24T13:22:38;25.80;99.90
12872;DHT22;6504;53.766;9.626;2023-07-24T13:25:06;25.80;99.90
12872;DHT22;6504;53.766;9.626;2023-07-24T13:27:35;25.70;99.90
12872;DHT22;6504;53.766;9.626;2023-07-24T13:30:03;25.60;99.90
12872;DHT22;6504;53.766;9.626;2023-07-24T13:32:31;25.60;99.90
12872;DHT22;6504;53.766;9.626;2023-07-24T13:34:59;25.50;99.90
12872;DHT22;6504;53.766;9.626;2023-07-24T13:37:29;25.40;99.90
12872;DHT22;6504;53.766;9.626;2023-07-24T13:39:57;25.10;99.90
12872;DHT22;6504;53.766;9.626;2023-07-24T13:42:25;25.10;99.90
12872;DHT22;6504;53.766;9.626;2023-07-24T13:44:53;24.90;99.90
12872;DHT22;6504;53.766;9.626;2023-07-24T13:47:22;24.80;99.90
12872;DHT22;6504;53.766;9.626;2023-07-24T13:49:50;24.70;99.90
12872;DHT22;6504;53.766;9.626;2023-07-24T13:52:18;24.60;99.90
12872;DHT22;6504;53.766;9.626;2023-07-24T13:54:48;24.50;99.90
12872;DHT22;6504;53.766;9.626;2023-07-24T13:57:16;24.40;99.90
12872;DHT22;6504;53.766;9.626;2023-07-24T13:59:44;24.30;99.90
12872;DHT22;6504;53.766;9.626;2023-07-24T14:02:12;24.30;99.90
12872;DHT22;6504;53.766;9.626;2023-07-24T14:04:40;24.30;99.90
12872;DHT22;6504;53.766;9.626;2023-07-24T14:07:09;24.30;99.90
12872;DHT22;6504;53.766;9.626;2023-07-24T14:09:39;24.20;99.90
12872;DHT22;6504;53.766;9.626;2023-07-24T14:12:10;24.10;99.90
12872;DHT22;6504;53.766;9.626;2023-07-24T14:14:38;24.00;99.90
12872;DHT22;6504;53.766;9.626;2023-07-24T14:17:06;24.00;99.90
12872;DHT22;6504;53.766;9.626;2023-07-24T14:19:34;24.00;99.90
12872;DHT22;6504;53.766;9.626;2023-07-24T14:22:03;24.00;99.90
12872;DHT22;6504;53.766;9.626;2023-07-24T14:24:31;24.00;99.90
12872;DHT22;6504;53.766;9.626;2023-07-24T14:26:59;24.00;99.90
12872;DHT22;6504;53.766;9.626;2023-07-24T14:29:28;24.00;99.90
12872;DHT22;6504;53.766;9.626;2023-07-24T14:31:56;24.00;99.90
12872;DHT22;6504;53.766;9.626;2023-07-24T14:34:25;24.00;99.90
12872;DHT22;6504;53.766;9.626;2023-07-24T14:36:53;23.90;99.90
12872;DHT22;6504;53.766;9.626;2023-07-24T14:39:21;23.90;99.90
12872;DHT22;6504;53.766;9.626;2023-07-24T14:41:49;23.80;99.90
12872;DHT22;6504;53.766;9.626;2023-07-24T14:44:17;23.80;99.90
12872;DHT22;6504;53.766;9.626;2023-07-24T14:46:46;23.80;99.90
12872;DHT22;6504;53.766;9.626;2023-07-24T14:49:14;23.70;99.90
12872;DHT22;6504;53.766;9.626;2023-07-24T14:51:42;23.70;99.90
12872;DHT22;6504;53.766;9.626;2023-07-24T14:54:11;23.60;99.90
12872;DHT22;6504;53.766;9.626;2023-07-24T14:56:39;23.50;99.90
12872;DHT22;6504;53.766;9.626;2023-07-24T14:59:25;23.40;99.90
12872;DHT22;6504;53.766;9.626;2023-07-24T15:01:54;23.20;99.90
12872;DHT22;6504;53.766;9.626;2023-07-24T15:04:22;23.00;99.90
12872;DHT22;6504;53.766;9.626;2023-07-24T15:06:50;22.80;99.90
12872;DHT22;6504;53.766;9.626;2023-07-24T15:09:18;22.60;99.90
12872;DHT22;6504;53.766;9.626;2023-07-24T15:11:46;22.40;99.90
12872;DHT22;6504;53.766;9.626;2023-07-24T15:14:14;22.20;99.90
12872;DHT22;6504;53.766;9.626;2023-07-24T15:16:42;21.90;99.90
12872;DHT22;6504;53.766;9.626;2023-07-24T15:19:13;21.60;99.90
12872;DHT22;6504;53.766;9.626;2023-07-24T15:21:41;21.40;99.90
12872;DHT22;6504;53.766;9.626;2023-07-24T15:24:09;21.20;99.90
12872;DHT22;6504;53.766;9.626;2023-07-24T15:26:37;21.10;99.90
12872;DHT22;6504;53.766;9.626;2023-07-24T15:29:05;21.00;99.90
12872;DHT22;6504;53.766;9.626;2023-07-24T15:31:33;20.90;99.90
12872;DHT22;6504;53.766;9.626;2023-07-24T15:34:03;20.90;99.90
12872;DHT22;6504;53.766;9.626;2023-07-24T15:36:34;20.80;99.90
12872;DHT22;6504;53.766;9.626;2023-07-24T15:39:03;20.90;99.90
12872;DHT22;6504;53.766;9.626;2023-07-24T15:41:31;20.90;99.90
12872;DHT22;6504;53.766;9.626;2023-07-24T15:43:59;20.90;99.90
12872;DHT22;6504;53.766;9.626;2023-07-24T15:46:28;21.00;99.90
12872;DHT22;6504;53.766;9.626;2023-07-24T15:48:59;20.90;99.90
12872;DHT22;6504;53.766;9.626;2023-07-24T15:51:28;20.90;99.90
12872;DHT22;6504;53.766;9.626;2023-07-24T15:54:00;20.80;99.90
12872;DHT22;6504;53.766;9.626;2023-07-24T15:56:31;20.80;99.90